Time,TemperatureF,DewpointF,PressureIn,WindDirection,WindDirectionDegrees,WindSpeedMPH,WindSpeedGustMPH,Humidity,HourlyPrecipIn,Conditions,Clouds,dailyrainin,SoftwareType,DateUTC
2013-02-21 00:01:00,81.0,81.0,29.68,North,0,0.0,0.0,99,0.00,,,0.00,,2013-02-20 14:01:00,
2013-02-21 00:11:00,81.0,81.0,29.68,North,0,0.0,0.0,99,0.00,,,0.00,,2013-02-20 14:11:00,
2013-02-21 00:21:00,80.0,80.0,29.67,North,0,0.0,0.0,99,0.00,,,0.00,,2013-02-20 14:21:00,
2013-02-21 00:32:00,80.0,80.0,29.67,North,0,0.0,0.0,99,0.00,,,0.00,,2013-02-20 14:32:00,
2013-02-21 00:42:00,80.0,80.0,29.67,North,0,0.0,0.0,99,0.00,,,0.00,,2013-02-20 14:42:00,
2013-02-21 00:52:00,81.0,81.0,29.67,NW,304,0.0,1.0,99,0.00,,,0.00,,2013-02-20 14:52:00,
2013-02-21 01:01:00,80.0,80.0,29.66,North,0,0.0,0.0,99,0.00,,,0.00,,2013-02-20 15:01:00,
2013-02-21 01:11:00,80.0,80.0,29.66,North,0,0.0,0.0,99,0.00,,,0.00,,2013-02-20 15:11:00,
2013-02-21 01:22:00,80.0,80.0,29.65,North,1,0.0,2.0,99,0.00,,,0.00,,2013-02-20 15:22:00,
2013-02-21 01:32:00,80.0,80.0,29.65,North,1,0.0,1.0,99,0.00,,,0.00,,2013-02-20 15:32:00,
2013-02-21 01:41:00,80.0,80.0,29.65,North,1,0.0,1.0,99,0.00,,,0.00,,2013-02-20 15:41:00,
2013-02-21 01:52:00,80.0,80.0,29.65,North,0,0.0,0.0,99,0.00,,,0.00,,2013-02-20 15:52:00,
2013-02-21 02:01:00,80.0,80.0,29.64,North,0,0.0,0.0,99,0.00,,,0.00,,2013-02-20 16:01:00,
2013-02-21 02:11:00,80.0,80.0,29.64,North,0,0.0,0.0,99,0.00,,,0.00,,2013-02-20 16:11:00,
2013-02-21 02:21:00,79.0,79.0,29.64,North,0,0.0,0.0,99,0.00,,,0.00,,2013-02-20 16:21:00,
2013-02-21 02:32:00,79.0,79.0,29.64,North,0,0.0,0.0,99,0.00,,,0.00,,2013-02-20 16:32:00,
2013-02-21 02:41:00,79.0,79.0,29.64,North,0,0.0,0.0,99,0.00,,,0.00,,2013-02-20 16:41:00,
2013-02-21 02:52:00,79.0,79.0,29.63,NW,314,0.0,2.0,99,0.00,,,0.00,,2013-02-20 16:52:00,
2013-02-21 03:01:00,79.0,79.0,29.63,NW,314,0.0,1.0,99,0.00,,,0.00,,2013-02-20 17:01:00,
2013-02-21 03:11:00,79.0,79.0,29.64,North,0,0.0,0.0,99,0.00,,,0.00,,2013-02-20 17:11:00,
2013-02-21 03:21:00,79.0,79.0,29.64,North,0,0.0,0.0,99,0.00,,,0.00,,2013-02-20 17:21:00,
2013-02-21 03:32:00,79.0,79.0,29.64,North,0,0.0,0.0,99,0.00,,,0.00,,2013-02-20 17:32:00,
2013-02-21 03:41:00,79.0,79.0,29.64,North,0,0.0,0.0,99,0.00,,,0.00,,2013-02-20 17:41:00,
2013-02-21 03:52:00,80.0,80.0,29.64,North,0,0.0,0.0,99,0.00,,,0.00,,2013-02-20 17:52:00,
2013-02-21 04:02:00,79.0,79.0,29.64,North,0,0.0,0.0,99,0.00,,,0.00,,2013-02-20 18:02:00,
2013-02-21 04:11:00,79.0,79.0,29.64,North,0,0.0,0.0,99,0.00,,,0.00,,2013-02-20 18:11:00,
2013-02-21 04:21:00,80.0,80.0,29.64,North,0,0.0,0.0,99,0.00,,,0.00,,2013-02-20 18:21:00,
2013-02-21 04:31:00,80.0,80.0,29.63,North,0,0.0,0.0,99,0.00,,,0.00,,2013-02-20 18:31:00,
2013-02-21 04:41:00,80.0,80.0,29.63,North,0,0.0,0.0,99,0.00,,,0.00,,2013-02-20 18:41:00,
2013-02-21 04:52:00,79.0,79.0,29.63,North,0,0.0,0.0,99,0.00,,,0.00,,2013-02-20 18:52:00,
2013-02-21 05:01:00,79.0,79.0,29.63,NW,314,0.0,1.0,99,0.00,,,0.00,,2013-02-20 19:01:00,
2013-02-21 05:11:00,79.0,79.0,29.63,NW,314,0.0,1.0,99,0.00,,,0.00,,2013-02-20 19:11:00,
2013-02-21 05:21:00,79.0,79.0,29.64,North,0,0.0,0.0,99,0.00,,,0.00,,2013-02-20 19:21:00,
2013-02-21 05:31:00,79.0,79.0,29.64,North,0,0.0,0.0,99,0.00,,,0.00,,2013-02-20 19:31:00,
2013-02-21 05:41:00,79.0,79.0,29.64,North,0,0.0,0.0,99,0.00,,,0.00,,2013-02-20 19:41:00,
2013-02-21 05:52:00,79.0,79.0,29.65,NW,314,0.0,1.0,99,0.00,,,0.00,,2013-02-20 19:52:00,
2013-02-21 06:01:00,79.0,79.0,29.65,NW,314,0.0,1.0,99,0.00,,,0.00,,2013-02-20 20:01:00,
2013-02-21 06:11:00,79.0,79.0,29.65,NW,314,0.0,1.0,99,0.00,,,0.00,,2013-02-20 20:11:00,
2013-02-21 06:21:00,79.0,79.0,29.65,NW,314,0.0,1.0,99,0.00,,,0.00,,2013-02-20 20:21:00,
2013-02-21 06:31:00,79.0,79.0,29.65,NW,314,0.0,2.0,99,0.00,,,0.00,,2013-02-20 20:31:00,
2013-02-21 06:41:00,79.0,79.0,29.65,NW,314,0.0,2.0,99,0.00,,,0.00,,2013-02-20 20:41:00,
2013-02-21 06:51:00,79.0,79.0,29.67,NW,314,0.0,2.0,99,0.00,,,0.00,,2013-02-20 20:51:00,
2013-02-21 07:01:00,79.0,79.0,29.67,West,270,0.0,1.0,99,0.00,,,0.00,,2013-02-20 21:01:00,
2013-02-21 07:11:00,79.0,79.0,29.67,West,270,0.0,1.0,99,0.00,,,0.00,,2013-02-20 21:11:00,
2013-02-21 07:21:00,79.0,79.0,29.67,West,270,0.0,1.0,99,0.00,,,0.00,,2013-02-20 21:21:00,
2013-02-21 07:31:00,80.0,80.0,29.68,West,270,0.0,1.0,99,0.00,,,0.00,,2013-02-20 21:31:00,
2013-02-21 07:41:00,80.0,80.0,29.68,West,270,0.0,1.0,99,0.00,,,0.00,,2013-02-20 21:41:00,
2013-02-21 07:52:00,81.0,81.0,29.68,North,1,0.0,1.0,99,0.00,,,0.00,,2013-02-20 21:52:00,
2013-02-21 08:01:00,82.0,82.0,29.69,NNW,327,0.0,1.0,99,0.00,,,0.00,,2013-02-20 22:01:00,
2013-02-21 08:11:00,82.0,82.0,29.69,NNW,327,0.0,1.0,99,0.00,,,0.00,,2013-02-20 22:11:00,
2013-02-21 08:21:00,85.0,85.0,29.68,NW,314,0.0,2.0,99,0.00,,,0.00,,2013-02-20 22:21:00,
2013-02-21 08:31:00,89.0,89.0,29.68,NW,326,1.0,2.0,99,0.00,,,0.00,,2013-02-20 22:31:00,
2013-02-21 08:41:00,89.0,89.0,29.68,NW,326,1.0,2.0,99,0.00,,,0.00,,2013-02-20 22:41:00,
2013-02-21 08:51:00,92.0,90.0,29.68,NW,311,1.0,2.0,93,0.00,,,0.00,,2013-02-20 22:51:00,
2013-02-21 09:01:00,92.0,90.0,29.68,NW,311,1.0,2.0,93,0.00,,,0.00,,2013-02-20 23:01:00,
2013-02-21 09:11:00,92.0,90.0,29.68,NW,311,1.0,2.0,93,0.00,,,0.00,,2013-02-20 23:11:00,
2013-02-21 09:22:00,94.0,88.0,29.67,NW,324,1.0,4.0,84,0.00,,,0.00,,2013-02-20 23:22:00,
2013-02-21 09:31:00,96.0,89.0,29.67,NW,326,0.0,3.0,81,0.00,,,0.00,,2013-02-20 23:31:00,
2013-02-21 09:42:00,96.0,89.0,29.67,NW,326,0.0,3.0,81,0.00,,,0.00,,2013-02-20 23:42:00,
2013-02-21 09:52:00,96.0,89.0,29.67,NW,326,0.0,3.0,81,0.00,,,0.00,,2013-02-20 23:52:00,
2013-02-21 10:02:00,95.0,88.0,29.65,WNW,302,1.0,6.0,80,0.00,,,0.00,,2013-02-21 00:02:00,
2013-02-21 10:11:00,95.0,88.0,29.65,WNW,302,1.0,6.0,80,0.00,,,0.00,,2013-02-21 00:11:00,
2013-02-21 10:21:00,96.0,88.0,29.65,NW,308,0.0,3.0,77,0.00,,,0.00,,2013-02-21 00:21:00,
2013-02-21 10:31:00,96.0,88.0,29.65,NW,308,0.0,3.0,77,0.00,,,0.00,,2013-02-21 00:31:00,
2013-02-21 10:41:00,96.0,88.0,29.65,NW,308,0.0,3.0,77,0.00,,,0.00,,2013-02-21 00:41:00,
2013-02-21 10:52:00,95.0,87.0,29.65,NW,312,1.0,3.0,79,0.00,,,0.00,,2013-02-21 00:52:00,
2013-02-21 11:01:00,97.0,86.0,29.66,WNW,288,1.0,6.0,72,0.00,,,0.00,,2013-02-21 01:01:00,
2013-02-21 11:11:00,97.0,86.0,29.66,WNW,288,1.0,6.0,72,0.00,,,0.00,,2013-02-21 01:11:00,
2013-02-21 11:21:00,96.0,88.0,29.65,SSE,166,2.0,9.0,79,0.00,,,0.00,,2013-02-21 01:21:00,
2013-02-21 11:31:00,96.0,90.0,29.66,SSW,193,1.0,8.0,82,0.00,,,0.00,,2013-02-21 01:31:00,
2013-02-21 11:41:00,96.0,90.0,29.66,SSW,193,1.0,8.0,82,0.00,,,0.00,,2013-02-21 01:41:00,
2013-02-21 11:52:00,96.0,90.0,29.65,SSE,160,2.0,9.0,83,0.00,,,0.00,,2013-02-21 01:52:00,
2013-02-21 12:01:00,95.0,89.0,29.65,South,183,1.0,10.0,84,0.00,,,0.00,,2013-02-21 02:01:00,
2013-02-21 12:11:00,95.0,89.0,29.65,South,183,1.0,10.0,84,0.00,,,0.00,,2013-02-21 02:11:00,
2013-02-21 12:21:00,96.0,90.0,29.65,SW,228,4.0,8.0,82,0.00,,,0.00,,2013-02-21 02:21:00,
2013-02-21 12:32:00,96.0,89.0,29.64,SSW,203,2.0,9.0,81,0.00,,,0.00,,2013-02-21 02:32:00,
2013-02-21 12:42:00,96.0,89.0,29.64,SSW,203,2.0,9.0,81,0.00,,,0.00,,2013-02-21 02:42:00,
2013-02-21 12:51:00,96.0,89.0,29.64,SSW,203,2.0,9.0,81,0.00,,,0.00,,2013-02-21 02:51:00,
2013-02-21 13:01:00,96.0,89.0,29.62,SW,215,4.0,9.0,80,0.00,,,0.00,,2013-02-21 03:01:00,
2013-02-21 13:11:00,96.0,89.0,29.62,SW,215,4.0,9.0,80,0.00,,,0.00,,2013-02-21 03:11:00,
2013-02-21 13:21:00,94.0,90.0,29.62,SSE,162,4.0,10.0,87,0.00,,,0.00,,2013-02-21 03:21:00,
2013-02-21 13:52:00,96.0,89.0,29.62,SSE,155,3.0,11.0,81,0.00,,,0.00,,2013-02-21 03:52:00,
2013-02-21 14:01:00,96.0,89.0,29.62,SSE,155,3.0,11.0,81,0.00,,,0.00,,2013-02-21 04:01:00,
2013-02-21 14:11:00,96.0,89.0,29.62,SSE,155,3.0,11.0,81,0.00,,,0.00,,2013-02-21 04:11:00,
2013-02-21 14:21:00,93.0,90.0,29.61,South,181,4.0,10.0,90,0.00,,,0.00,,2013-02-21 04:21:00,
2013-02-21 14:31:00,92.0,89.0,29.62,South,176,4.0,12.0,92,0.00,,,0.00,,2013-02-21 04:31:00,
2013-02-21 14:41:00,92.0,89.0,29.62,South,176,4.0,12.0,92,0.00,,,0.00,,2013-02-21 04:41:00,
2013-02-21 14:51:00,91.0,90.0,29.61,WSW,252,1.0,7.0,97,0.00,,,0.00,,2013-02-21 04:51:00,
2013-02-21 15:02:00,91.0,90.0,29.61,WSW,252,1.0,7.0,97,0.00,,,0.00,,2013-02-21 05:02:00,
2013-02-21 15:12:00,91.0,90.0,29.61,WSW,252,1.0,7.0,97,0.00,,,0.00,,2013-02-21 05:12:00,
2013-02-21 15:21:00,85.0,85.0,29.62,WSW,245,0.0,7.0,99,0.08,,,0.08,,2013-02-21 05:21:00,
2013-02-21 15:32:00,85.0,85.0,29.61,WSW,244,0.0,3.0,99,0.09,,,0.09,,2013-02-21 05:32:00,
2013-02-21 15:46:00,85.0,85.0,29.61,WSW,244,0.0,3.0,99,0.09,,,0.09,,2013-02-21 05:46:00,
2013-02-21 15:57:00,84.0,84.0,29.60,West,268,0.0,3.0,99,0.13,,,0.13,,2013-02-21 05:57:00,
2013-02-21 16:11:00,84.0,84.0,29.60,West,265,1.0,3.0,99,0.14,,,0.14,,2013-02-21 06:11:00,
2013-02-21 16:21:00,82.0,82.0,29.62,NW,311,0.0,4.0,99,0.07,,,0.15,,2013-02-21 06:21:00,
2013-02-21 16:31:00,80.0,80.0,29.62,NW,312,0.0,4.0,99,0.06,,,0.15,,2013-02-21 06:31:00,
2013-02-21 16:41:00,80.0,80.0,29.62,NW,312,0.0,4.0,99,0.06,,,0.15,,2013-02-21 06:41:00,
2013-02-21 16:51:00,78.0,78.0,29.64,NW,321,0.0,3.0,99,0.01,,,0.15,,2013-02-21 06:51:00,
2013-02-21 17:01:00,78.0,78.0,29.62,NW,317,0.0,4.0,99,0.02,,,0.17,,2013-02-21 07:01:00,
2013-02-21 17:11:00,77.0,77.0,29.64,NNW,343,1.0,2.0,99,0.01,,,0.17,,2013-02-21 07:11:00,
2013-02-21 17:21:00,77.0,77.0,29.64,NNW,343,1.0,2.0,99,0.01,,,0.17,,2013-02-21 07:21:00,
2013-02-21 17:31:00,77.0,77.0,29.63,NW,316,0.0,2.0,99,0.01,,,0.17,,2013-02-21 07:31:00,
2013-02-21 17:41:00,77.0,77.0,29.65,ESE,117,0.0,3.0,99,0.01,,,0.17,,2013-02-21 07:41:00,
2013-02-21 17:52:00,77.0,77.0,29.65,ESE,117,0.0,3.0,99,0.01,,,0.17,,2013-02-21 07:52:00,
2013-02-21 18:01:00,78.0,78.0,29.65,NNE,22,0.0,1.0,99,0.00,,,0.17,,2013-02-21 08:01:00,
2013-02-21 18:11:00,78.0,78.0,29.65,NNE,22,0.0,1.0,99,0.00,,,0.17,,2013-02-21 08:11:00,
2013-02-21 18:21:00,78.0,78.0,29.65,SE,135,0.0,2.0,99,0.01,,,0.18,,2013-02-21 08:21:00,
2013-02-21 18:31:00,78.0,78.0,29.65,North,0,0.0,0.0,99,0.02,,,0.19,,2013-02-21 08:31:00,
2013-02-21 18:41:00,78.0,78.0,29.65,North,0,0.0,0.0,99,0.02,,,0.19,,2013-02-21 08:41:00,
2013-02-21 18:51:00,78.0,78.0,29.66,North,0,0.0,0.0,99,0.02,,,0.19,,2013-02-21 08:51:00,
2013-02-21 19:01:00,78.0,78.0,29.66,North,0,0.0,0.0,99,0.02,,,0.19,,2013-02-21 09:01:00,
2013-02-21 19:11:00,78.0,78.0,29.66,North,0,0.0,0.0,99,0.02,,,0.19,,2013-02-21 09:11:00,
2013-02-21 19:22:00,78.0,78.0,29.67,North,0,0.0,0.0,99,0.01,,,0.19,,2013-02-21 09:22:00,
2013-02-21 19:31:00,78.0,78.0,29.68,North,0,0.0,0.0,99,0.00,,,0.19,,2013-02-21 09:31:00,
2013-02-21 19:42:00,78.0,78.0,29.68,North,0,0.0,0.0,99,0.00,,,0.19,,2013-02-21 09:42:00,
2013-02-21 19:52:00,78.0,78.0,29.67,NW,314,0.0,1.0,99,0.00,,,0.19,,2013-02-21 09:52:00,
2013-02-21 20:01:00,78.0,78.0,29.68,NW,314,0.0,2.0,99,0.00,,,0.19,,2013-02-21 10:01:00,
2013-02-21 20:11:00,78.0,78.0,29.68,NW,314,0.0,2.0,99,0.00,,,0.19,,2013-02-21 10:11:00,
2013-02-21 20:21:00,78.0,78.0,29.68,NW,314,0.0,2.0,99,0.00,,,0.19,,2013-02-21 10:21:00,
2013-02-21 20:31:00,77.0,77.0,29.69,North,0,0.0,0.0,99,0.00,,,0.19,,2013-02-21 10:31:00,
2013-02-21 20:41:00,77.0,77.0,29.69,North,0,0.0,0.0,99,0.00,,,0.19,,2013-02-21 10:41:00,
2013-02-21 20:51:00,77.0,77.0,29.70,North,0,0.0,0.0,99,0.00,,,0.19,,2013-02-21 10:51:00,
2013-02-21 21:00:00,77.0,77.0,29.70,North,0,0.0,0.0,99,0.00,,,0.19,,2013-02-21 11:00:00,
2013-02-21 21:10:00,77.0,77.0,29.70,North,0,0.0,0.0,99,0.00,,,0.19,,2013-02-21 11:10:00,
2013-02-21 21:21:00,77.0,77.0,29.70,North,0,0.0,0.0,99,0.00,,,0.19,,2013-02-21 11:21:00,
2013-02-21 21:31:00,77.0,77.0,29.70,North,0,0.0,0.0,99,0.00,,,0.19,,2013-02-21 11:31:00,
2013-02-21 21:41:00,77.0,77.0,29.70,North,0,0.0,0.0,99,0.00,,,0.19,,2013-02-21 11:41:00,
2013-02-21 21:51:00,77.0,77.0,29.70,North,0,0.0,0.0,99,0.00,,,0.19,,2013-02-21 11:51:00,
2013-02-21 22:01:00,77.0,77.0,29.70,North,0,0.0,0.0,99,0.00,,,0.19,,2013-02-21 12:01:00,
2013-02-21 22:11:00,77.0,77.0,29.70,North,0,0.0,0.0,99,0.00,,,0.19,,2013-02-21 12:11:00,
2013-02-21 22:52:00,77.0,77.0,29.70,NW,314,0.0,1.0,99,0.00,,,0.19,,2013-02-21 12:52:00,
2013-02-21 23:01:00,77.0,77.0,29.70,NW,314,0.0,1.0,99,0.00,,,0.19,,2013-02-21 13:01:00,
2013-02-21 23:12:00,77.0,77.0,29.70,NW,314,0.0,1.0,99,0.00,,,0.19,,2013-02-21 13:12:00,
2013-02-21 23:22:00,77.0,77.0,29.71,North,0,0.0,0.0,99,0.00,,,0.19,,2013-02-21 13:22:00,
2013-02-21 23:31:00,77.0,77.0,29.70,NNW,344,0.0,1.0,99,0.00,,,0.19,,2013-02-21 13:31:00,
2013-02-21 23:41:00,77.0,77.0,29.70,NNW,344,0.0,1.0,99,0.00,,,0.19,,2013-02-21 13:41:00,
2013-02-21 23:52:00,77.0,77.0,29.70,North,0,0.0,0.0,99,0.00,,,0.19,,2013-02-21 13:52:00,